createdAt,value
2022-08-30T00:00:43.434Z,64.06
2022-08-30T00:03:16.422Z,64.07
2022-08-30T00:05:47.273Z,63.84
2022-08-30T00:08:14.960Z,63.94
2022-08-30T00:10:46.162Z,63.67
2022-08-30T00:13:19.537Z,64.25
2022-08-30T00:15:50.091Z,64.34
2022-08-30T00:18:29.121Z,64.58
2022-08-30T00:20:59.194Z,64.23
2022-08-30T00:23:27.873Z,64.46
2022-08-30T00:26:02.908Z,64.48
2022-08-30T00:28:34.289Z,64.32
2022-08-30T00:31:08.833Z,64.35
2022-08-30T00:33:41.859Z,64.11
2022-08-30T00:36:14.774Z,63.89
2022-08-30T00:38:45.488Z,64.03
2022-08-30T00:41:18.500Z,65.22
2022-08-30T00:43:46.345Z,65.13
2022-08-30T00:46:19.366Z,64.38
2022-08-30T00:48:49.938Z,64.65
2022-08-30T00:51:21.676Z,64.15
2022-08-30T00:53:57.073Z,64.66
2022-08-30T00:56:25.393Z,64.33
2022-08-30T00:58:56.622Z,64.51
2022-08-30T01:01:26.738Z,65.16
2022-08-30T01:03:57.497Z,65.34
2022-08-30T01:06:32.402Z,65.33
2022-08-30T01:09:04.503Z,65.29
2022-08-30T01:11:36.049Z,64.51
2022-08-30T01:14:06.934Z,64.48
2022-08-30T01:16:37.815Z,64.53
2022-08-30T01:19:25.692Z,64.77
2022-08-30T01:22:02.176Z,65.07
2022-08-30T01:24:35.931Z,65.30
2022-08-30T01:27:12.500Z,66.00
2022-08-30T01:29:41.007Z,66.63
2022-08-30T01:32:32.591Z,66.67
2022-08-30T01:35:04.960Z,66.57
2022-08-30T01:37:35.118Z,66.38
2022-08-30T01:40:08.667Z,65.58
2022-08-30T01:42:41.547Z,65.19
2022-08-30T01:45:09.673Z,65.15
2022-08-30T01:47:40.445Z,65.10
2022-08-30T01:50:35.471Z,65.02
2022-08-30T01:53:07.939Z,65.26
2022-08-30T01:55:46.230Z,67.58
2022-08-30T01:58:16.209Z,67.46
2022-08-30T02:00:49.714Z,67.46
2022-08-30T02:03:17.458Z,68.91
2022-08-30T02:05:46.117Z,67.94
2022-08-30T02:08:19.098Z,67.31
2022-08-30T02:10:49.732Z,66.52
2022-08-30T02:13:18.135Z,66.41
2022-08-30T02:15:51.256Z,66.20
2022-08-30T02:18:26.483Z,65.78
2022-08-30T02:21:04.316Z,65.60
2022-08-30T02:23:35.870Z,67.00
2022-08-30T02:26:07.933Z,67.77
2022-08-30T02:28:42.826Z,66.55
2022-08-30T02:31:19.467Z,65.99
2022-08-30T02:33:51.975Z,65.81
2022-08-30T02:36:20.888Z,66.74
2022-08-30T02:38:51.887Z,68.79
2022-08-30T02:41:21.728Z,68.47
2022-08-30T02:43:58.779Z,68.04
2022-08-30T02:46:33.264Z,67.80
2022-08-30T02:49:29.875Z,69.38
2022-08-30T02:51:58.237Z,70.86
2022-08-30T02:54:33.302Z,72.10
2022-08-30T02:57:05.473Z,71.29
2022-08-30T02:59:41.862Z,69.98
2022-08-30T03:02:15.673Z,69.97
2022-08-30T03:04:47.185Z,68.02
2022-08-30T03:07:17.970Z,66.07
2022-08-30T03:09:48.675Z,70.37
2022-08-30T03:12:16.400Z,68.31
2022-08-30T03:14:49.471Z,67.90
2022-08-30T03:17:20.075Z,68.38
2022-08-30T03:19:56.001Z,66.74
2022-08-30T03:22:23.945Z,66.65
2022-08-30T03:25:00.683Z,66.10
2022-08-30T03:27:34.089Z,66.51
2022-08-30T03:30:09.315Z,66.69
2022-08-30T03:32:43.288Z,66.30
2022-08-30T03:35:14.254Z,67.25
2022-08-30T03:37:45.984Z,66.92
2022-08-30T03:40:15.368Z,66.34
2022-08-30T03:42:48.943Z,66.22
2022-08-30T03:45:19.921Z,67.79
2022-08-30T03:47:50.434Z,68.57
2022-08-30T03:50:23.484Z,68.33
2022-08-30T03:52:56.854Z,69.11
2022-08-30T03:55:27.222Z,68.58
2022-08-30T03:58:00.813Z,68.75
2022-08-30T04:00:34.351Z,69.53
2022-08-30T04:03:07.531Z,69.61
2022-08-30T04:05:40.522Z,70.44
2022-08-30T04:08:11.160Z,69.82
2022-08-30T04:10:41.411Z,68.17
2022-08-30T04:13:09.474Z,68.73
2022-08-30T04:15:37.193Z,66.97
2022-08-30T04:18:04.934Z,66.65
2022-08-30T04:20:39.320Z,66.68
2022-08-30T04:23:10.504Z,64.93
2022-08-30T04:25:41.474Z,67.50
2022-08-30T04:28:09.524Z,67.75
2022-08-30T04:30:45.775Z,65.72
2022-08-30T04:33:21.187Z,66.74
2022-08-30T04:35:57.090Z,66.89
2022-08-30T04:38:30.400Z,65.51
2022-08-30T04:41:01.134Z,66.70
2022-08-30T04:43:28.860Z,65.80
2022-08-30T04:46:02.153Z,66.40
2022-08-30T04:48:29.856Z,65.58
2022-08-30T04:51:02.958Z,65.67
2022-08-30T04:53:36.333Z,65.70
2022-08-30T04:56:16.507Z,65.89
2022-08-30T04:58:52.054Z,66.52
2022-08-30T05:01:30.366Z,66.49
2022-08-30T05:04:01.525Z,66.11
2022-08-30T05:06:34.799Z,67.28
2022-08-30T05:09:06.251Z,67.67
2022-08-30T05:11:38.511Z,66.76
2022-08-30T05:14:11.197Z,66.79
2022-08-30T05:16:39.036Z,66.83
2022-08-30T05:19:09.719Z,66.51
2022-08-30T05:21:41.353Z,66.61
2022-08-30T05:24:09.236Z,66.52
2022-08-30T05:26:42.189Z,66.33
2022-08-30T05:29:31.673Z,67.81
2022-08-30T05:31:59.371Z,67.41
2022-08-30T05:34:34.412Z,67.00
2022-08-30T05:37:04.405Z,66.48
2022-08-30T05:39:50.664Z,66.35
2022-08-30T05:42:25.726Z,67.21
2022-08-30T05:44:54.370Z,67.49
2022-08-30T05:47:25.607Z,67.88
2022-08-30T05:49:56.291Z,68.00
2022-08-30T05:52:24.468Z,68.16
2022-08-30T05:54:53.061Z,67.88
2022-08-30T05:57:20.740Z,68.01
2022-08-30T05:59:48.523Z,68.88
2022-08-30T06:02:16.243Z,68.75
2022-08-30T06:04:52.368Z,68.67
2022-08-30T06:07:25.341Z,68.20
2022-08-30T06:09:55.653Z,68.08
2022-08-30T06:12:24.675Z,67.13
2022-08-30T06:14:54.747Z,68.31
2022-08-30T06:17:27.645Z,67.34
2022-08-30T06:19:56.172Z,67.92
2022-08-30T06:22:23.939Z,66.73
2022-08-30T06:24:57.762Z,66.79
2022-08-30T06:27:31.379Z,65.72
2022-08-30T06:30:04.207Z,65.52
2022-08-30T06:32:34.527Z,65.93
2022-08-30T06:35:12.186Z,66.31
2022-08-30T06:37:39.680Z,65.56
2022-08-30T06:40:07.483Z,65.64
2022-08-30T06:42:45.456Z,65.29
2022-08-30T06:45:26.876Z,64.94
2022-08-30T06:48:02.890Z,64.95
2022-08-30T06:50:37.486Z,65.63
2022-08-30T06:53:11.506Z,66.04
2022-08-30T06:55:49.708Z,67.05
2022-08-30T06:58:23.993Z,67.42
2022-08-30T07:00:57.726Z,65.92
2022-08-30T07:03:30.157Z,65.86
2022-08-30T07:06:06.213Z,66.62
2022-08-30T07:08:34.482Z,66.57
2022-08-30T07:11:10.499Z,66.18
2022-08-30T07:13:47.190Z,65.85
2022-08-30T07:16:23.165Z,64.48
2022-08-30T07:19:03.247Z,63.53
2022-08-30T07:21:43.580Z,64.20
2022-08-30T07:24:19.183Z,63.59
2022-08-30T07:26:55.426Z,64.12
2022-08-30T07:29:28.478Z,63.71
2022-08-30T07:31:58.894Z,63.54
2022-08-30T07:34:29.233Z,63.00
2022-08-30T07:37:06.805Z,63.75
2022-08-30T07:39:47.555Z,63.26
2022-08-30T07:42:24.530Z,62.10
2022-08-30T07:44:57.413Z,61.58
2022-08-30T07:47:35.986Z,61.16
2022-08-30T07:50:29.369Z,60.90
2022-08-30T07:53:02.345Z,62.58
2022-08-30T07:55:36.583Z,61.96
2022-08-30T07:58:30.911Z,59.40
2022-08-30T08:01:21.394Z,59.60
2022-08-30T08:03:51.920Z,58.16
2022-08-30T08:06:23.082Z,56.84
2022-08-30T08:09:02.267Z,58.68
2022-08-30T08:11:33.895Z,56.24
2022-08-30T08:14:06.406Z,59.95
2022-08-30T08:16:37.949Z,58.55
2022-08-30T08:19:25.363Z,57.50
2022-08-30T08:27:52.318Z,57.08
2022-08-30T08:30:24.229Z,58.22
2022-08-30T08:32:58.564Z,57.35
2022-08-30T08:35:55.699Z,54.71
2022-08-30T08:38:34.542Z,50.78
2022-08-30T08:41:15.779Z,54.19
2022-08-30T08:43:50.659Z,52.16
2022-08-30T08:49:20.121Z,52.57
2022-08-30T08:52:15.528Z,53.15
2022-08-30T08:54:53.740Z,53.74
2022-08-30T08:57:26.718Z,53.27
2022-08-30T08:59:55.552Z,54.68
2022-08-30T09:02:25.497Z,54.97
2022-08-30T09:04:58.595Z,54.10
2022-08-30T09:07:30.863Z,53.68
2022-08-30T09:10:01.811Z,54.01
2022-08-30T09:12:32.775Z,52.90
2022-08-30T09:15:05.865Z,51.18
2022-08-30T09:17:54.784Z,50.50
2022-08-30T09:20:45.603Z,51.33
2022-08-30T09:23:19.959Z,50.63
2022-08-30T09:25:54.895Z,51.80
2022-08-30T09:28:29.027Z,52.61
2022-08-30T09:31:02.924Z,53.61
2022-08-30T09:33:34.287Z,54.74
2022-08-30T09:36:23.350Z,55.02
2022-08-30T09:38:57.491Z,53.13
2022-08-30T09:41:37.635Z,54.38
2022-08-30T09:44:17.609Z,53.63
2022-08-30T09:47:22.165Z,52.55
2022-08-30T09:50:07.225Z,53.20
2022-08-30T09:52:41.073Z,53.25
2022-08-30T09:55:14.518Z,52.63
2022-08-30T09:57:43.317Z,52.87
2022-08-30T10:00:32.607Z,51.99
2022-08-30T10:03:03.673Z,52.74
2022-08-30T10:05:35.401Z,53.41
2022-08-30T10:08:16.641Z,54.79
2022-08-30T10:11:02.016Z,51.29
2022-08-30T10:13:40.363Z,51.75
2022-08-30T10:16:09.227Z,50.54
2022-08-30T10:18:46.815Z,52.59
2022-08-30T10:21:27.211Z,51.47
2022-08-30T10:24:04.999Z,50.31
2022-08-30T10:26:44.243Z,49.79
2022-08-30T10:29:17.435Z,47.95
2022-08-30T10:31:49.136Z,49.57
2022-08-30T10:34:22.940Z,49.87
2022-08-30T10:36:59.518Z,49.61
2022-08-30T10:39:35.895Z,50.73
2022-08-30T10:42:10.463Z,50.75
2022-08-30T10:44:44.887Z,48.54
2022-08-30T10:47:23.360Z,46.67
2022-08-30T10:49:54.558Z,48.42
2022-08-30T10:52:23.724Z,48.93
2022-08-30T10:54:59.539Z,49.24
2022-08-30T10:57:33.208Z,48.88
2022-08-30T11:00:04.889Z,49.42
2022-08-30T11:02:53.717Z,51.92
2022-08-30T11:05:42.114Z,48.34
2022-08-30T11:08:20.448Z,45.63
2022-08-30T11:11:12.995Z,46.34
2022-08-30T11:13:49.122Z,43.58
2022-08-30T11:16:20.687Z,43.65
2022-08-30T11:18:56.977Z,45.03
2022-08-30T11:21:28.127Z,47.57
2022-08-30T11:24:11.897Z,47.27
2022-08-30T11:26:46.507Z,45.88
2022-08-30T11:29:30.879Z,46.04
2022-08-30T11:32:03.295Z,43.96
2022-08-30T11:34:49.799Z,46.67
2022-08-30T11:37:55.871Z,45.95
2022-08-30T11:40:30.390Z,44.60
2022-08-30T11:43:03.805Z,44.48
2022-08-30T11:45:41.248Z,42.01
2022-08-30T11:48:32.198Z,42.03
2022-08-30T11:51:07.696Z,42.00
2022-08-30T11:54:21.193Z,45.62
2022-08-30T11:56:58.489Z,46.54
2022-08-30T11:59:31.912Z,46.24
2022-08-30T12:02:06.433Z,47.46
2022-08-30T12:04:45.985Z,49.35
2022-08-30T12:07:40.469Z,46.24
2022-08-30T12:10:19.876Z,44.53
2022-08-30T12:12:48.696Z,43.59
2022-08-30T12:15:30.429Z,40.51
2022-08-30T12:18:17.483Z,41.25
2022-08-30T12:20:48.863Z,39.62
2022-08-30T12:23:26.722Z,39.42
2022-08-30T12:26:15.231Z,41.89
2022-08-30T12:28:43.870Z,39.93
2022-08-30T12:31:19.118Z,37.76
2022-08-30T12:34:00.589Z,38.44
2022-08-30T12:37:00.797Z,38.22
2022-08-30T12:39:35.925Z,40.57
2022-08-30T12:42:18.412Z,38.69
2022-08-30T12:44:48.953Z,36.65
2022-08-30T12:47:22.117Z,37.78
2022-08-30T12:49:52.632Z,37.25
2022-08-30T12:52:26.000Z,42.26
2022-08-30T12:54:55.171Z,38.96
2022-08-30T12:57:39.364Z,40.08
2022-08-30T13:00:10.083Z,41.00
2022-08-30T13:02:52.204Z,39.11
2022-08-30T13:05:34.318Z,36.97
2022-08-30T13:08:11.714Z,37.70
2022-08-30T13:11:13.403Z,37.44
2022-08-30T13:13:52.173Z,38.81
2022-08-30T13:16:26.132Z,39.18
2022-08-30T13:18:54.357Z,35.50
2022-08-30T13:21:23.634Z,36.67
2022-08-30T13:23:57.995Z,36.77
2022-08-30T13:26:29.633Z,34.84
2022-08-30T13:28:58.786Z,35.04
2022-08-30T13:31:28.583Z,38.63
2022-08-30T13:34:02.461Z,36.16
2022-08-30T13:36:31.628Z,36.94
2022-08-30T13:38:59.794Z,36.94
2022-08-30T13:41:33.938Z,37.06
2022-08-30T13:44:11.698Z,38.55
2022-08-30T13:50:01.839Z,40.02
2022-08-30T13:52:29.715Z,42.27
2022-08-30T13:54:59.658Z,41.02
2022-08-30T14:00:27.201Z,42.67
2022-08-30T14:03:00.494Z,44.01
2022-08-30T14:08:45.161Z,44.46
2022-08-30T14:11:18.722Z,45.37
2022-08-30T14:16:51.670Z,45.26
2022-08-30T14:19:19.372Z,45.33
2022-08-30T14:21:49.259Z,46.67
2022-08-30T14:24:23.325Z,49.48
2022-08-30T14:26:56.384Z,45.74
2022-08-30T14:29:30.080Z,45.83
2022-08-30T14:32:00.078Z,46.93
2022-08-30T14:34:28.218Z,46.47
2022-08-30T14:36:59.631Z,46.82
2022-08-30T14:39:32.728Z,48.53
2022-08-30T14:42:03.337Z,48.78
2022-08-30T14:44:55.153Z,48.58
2022-08-30T14:47:34.425Z,47.37
2022-08-30T14:50:11.016Z,51.09
2022-08-30T14:52:38.976Z,47.72
2022-08-30T14:55:09.709Z,47.49
2022-08-30T14:57:41.284Z,47.79
2022-08-30T15:00:16.088Z,49.88
2022-08-30T15:02:47.341Z,46.38
2022-08-30T15:05:20.799Z,48.91
2022-08-30T15:07:56.816Z,48.42
2022-08-30T15:10:28.257Z,47.78
2022-08-30T15:12:59.090Z,49.64
2022-08-30T15:15:35.434Z,47.44
2022-08-30T15:18:05.405Z,50.27
2022-08-30T15:20:33.153Z,50.91
2022-08-30T15:23:01.561Z,49.02
2022-08-30T15:25:29.628Z,50.04
2022-08-30T15:27:59.867Z,50.25
2022-08-30T15:30:31.937Z,49.49
2022-08-30T15:32:59.944Z,50.84
2022-08-30T15:35:31.509Z,51.04
2022-08-30T15:38:01.564Z,51.03
2022-08-30T15:40:32.683Z,50.15
2022-08-30T15:43:03.903Z,49.96
2022-08-30T15:45:34.494Z,49.06
2022-08-30T15:48:02.678Z,49.71
2022-08-30T15:50:36.038Z,53.39
2022-08-30T15:53:11.903Z,50.59
2022-08-30T15:55:40.135Z,52.29
2022-08-30T15:58:13.751Z,50.43
2022-08-30T16:00:44.844Z,51.89
2022-08-30T16:03:13.409Z,50.30
2022-08-30T16:05:43.425Z,52.62
2022-08-30T16:08:14.265Z,52.37
2022-08-30T16:10:47.969Z,52.97
2022-08-30T16:13:22.299Z,53.42
2022-08-30T16:15:56.729Z,53.00
2022-08-30T16:18:33.591Z,54.43
2022-08-30T16:21:05.230Z,54.06
2022-08-30T16:23:36.236Z,54.35
2022-08-30T16:26:07.236Z,53.53
2022-08-30T16:28:39.616Z,53.01
2022-08-30T16:31:10.688Z,54.49
2022-08-30T16:33:43.874Z,55.02
2022-08-30T16:36:16.121Z,53.68
2022-08-30T16:38:58.021Z,53.72
2022-08-30T16:41:28.585Z,55.00
2022-08-30T16:44:03.635Z,53.27
2022-08-30T16:46:38.157Z,55.04
2022-08-30T16:49:06.754Z,56.96
2022-08-30T16:51:36.982Z,56.90
2022-08-30T16:54:07.678Z,55.74
2022-08-30T16:56:36.325Z,54.63
2022-08-30T16:59:10.940Z,55.10
2022-08-30T17:01:44.929Z,56.21
2022-08-30T17:04:13.858Z,55.46
2022-08-30T17:06:46.148Z,54.41
2022-08-30T17:09:17.033Z,55.88
2022-08-30T17:11:48.665Z,54.54
2022-08-30T17:14:27.955Z,54.64
2022-08-30T17:17:23.645Z,54.72
2022-08-30T17:19:58.368Z,54.15
2022-08-30T17:22:28.941Z,56.22
2022-08-30T17:25:04.889Z,60.12
2022-08-30T17:27:33.167Z,62.26
2022-08-30T17:30:03.722Z,63.45
2022-08-30T17:32:38.517Z,63.83
2022-08-30T17:35:14.272Z,64.24
2022-08-30T17:37:47.111Z,65.79
2022-08-30T17:40:25.406Z,65.70
2022-08-30T17:42:58.580Z,66.52
2022-08-30T17:45:29.108Z,65.77
2022-08-30T17:48:02.877Z,66.33
2022-08-30T17:50:37.388Z,67.34
2022-08-30T17:53:08.289Z,68.65
2022-08-30T17:55:48.310Z,68.60
2022-08-30T17:58:24.132Z,67.98
2022-08-30T18:01:02.053Z,67.24
2022-08-30T18:03:37.196Z,67.94
2022-08-30T18:06:10.277Z,67.94
2022-08-30T18:08:53.097Z,69.13
2022-08-30T18:11:51.908Z,67.29
2022-08-30T18:14:33.611Z,65.66
2022-08-30T18:17:11.663Z,66.15
2022-08-30T18:19:48.319Z,65.62
2022-08-30T18:22:19.706Z,65.98
2022-08-30T18:24:53.854Z,65.35
2022-08-30T18:27:28.306Z,65.39
2022-08-30T18:30:01.893Z,64.26
2022-08-30T18:32:38.502Z,64.86
2022-08-30T18:35:11.789Z,63.98
2022-08-30T18:44:24.036Z,63.93
2022-08-30T18:47:03.780Z,63.78
2022-08-30T18:49:47.141Z,64.07
2022-08-30T18:52:28.612Z,63.80
2022-08-30T18:55:04.639Z,62.54
2022-08-30T18:57:59.578Z,63.06
2022-08-30T19:00:41.586Z,63.44
2022-08-30T19:03:16.855Z,63.31
2022-08-30T19:06:08.452Z,63.30
2022-08-30T19:08:45.976Z,63.73
2022-08-30T19:11:18.582Z,63.81
2022-08-30T19:13:53.280Z,63.63
2022-08-30T19:16:36.327Z,63.45
2022-08-30T19:19:14.068Z,64.80
2022-08-30T19:21:52.349Z,63.99
2022-08-30T19:24:27.473Z,64.42
2022-08-30T19:27:07.880Z,64.55
2022-08-30T19:29:40.639Z,63.96
2022-08-30T19:32:16.919Z,63.36
2022-08-30T19:35:07.538Z,62.93
2022-08-30T19:37:39.580Z,62.37
2022-08-30T19:40:17.777Z,63.01
2022-08-30T19:42:50.072Z,62.76
2022-08-30T19:45:24.862Z,63.54
2022-08-30T19:48:00.626Z,62.90
2022-08-30T19:50:47.470Z,63.79
2022-08-30T19:56:22.990Z,63.83
2022-08-30T19:58:54.126Z,64.15
2022-08-30T20:01:33.249Z,63.55
2022-08-30T20:04:05.819Z,63.91
2022-08-30T20:06:36.583Z,63.60
2022-08-30T20:12:01.142Z,63.34
2022-08-30T20:14:32.132Z,62.79
2022-08-30T20:17:04.927Z,63.79
2022-08-30T20:19:42.883Z,62.72
2022-08-30T20:22:16.042Z,63.61
2022-08-30T20:24:47.895Z,64.49
2022-08-30T20:27:23.057Z,63.27
2022-08-30T20:29:50.855Z,63.51
2022-08-30T20:32:21.781Z,62.84
2022-08-30T20:34:58.021Z,61.19
2022-08-30T20:37:28.433Z,63.55
2022-08-30T20:39:57.638Z,62.65
2022-08-30T20:42:31.007Z,60.90
2022-08-30T20:44:59.675Z,61.64
2022-08-30T20:47:29.788Z,60.13
2022-08-30T20:50:13.900Z,63.29
2022-08-30T20:52:45.260Z,64.27
2022-08-30T20:55:20.020Z,63.41
2022-08-30T20:57:52.129Z,63.23
2022-08-30T21:00:25.710Z,62.88
2022-08-30T21:02:54.843Z,63.63
2022-08-30T21:05:22.712Z,62.78
2022-08-30T21:07:53.178Z,64.32
2022-08-30T21:10:23.494Z,62.71
2022-08-30T21:12:55.037Z,61.09
2022-08-30T21:15:37.299Z,62.09
2022-08-30T21:18:08.857Z,60.96
2022-08-30T21:20:55.695Z,62.73
2022-08-30T21:23:27.762Z,61.68
2022-08-30T21:26:02.270Z,63.33
2022-08-30T21:28:37.423Z,62.44
2022-08-30T21:31:09.977Z,62.18
2022-08-30T21:33:40.509Z,61.51
2022-08-30T21:36:30.284Z,63.08
2022-08-30T21:39:00.950Z,64.77
2022-08-30T21:41:29.846Z,64.27
2022-08-30T21:44:04.277Z,65.05
2022-08-30T21:46:33.033Z,64.98
2022-08-30T21:49:07.568Z,64.45
2022-08-30T21:51:42.597Z,64.85
2022-08-30T21:54:12.072Z,65.06
2022-08-30T21:56:43.193Z,65.92
2022-08-30T21:59:14.039Z,65.75
2022-08-30T22:01:47.364Z,65.20
2022-08-30T22:04:15.405Z,65.66
2022-08-30T22:06:50.549Z,65.65
2022-08-30T22:09:27.193Z,65.42
2022-08-30T22:12:00.415Z,64.81
2022-08-30T22:14:29.105Z,64.96
2022-08-30T22:17:02.572Z,64.96
2022-08-30T22:19:31.557Z,64.48
2022-08-30T22:22:03.940Z,64.75
2022-08-30T22:24:36.690Z,65.14
2022-08-30T22:27:05.316Z,65.80
2022-08-30T22:29:37.545Z,66.22
2022-08-30T22:32:08.555Z,65.53
2022-08-30T22:34:39.241Z,65.39
2022-08-30T22:37:09.783Z,65.08
2022-08-30T22:39:46.614Z,64.81
2022-08-30T22:42:17.930Z,64.98
2022-08-30T22:44:45.482Z,66.42
2022-08-30T22:47:16.923Z,67.84
2022-08-30T22:49:47.505Z,66.87
2022-08-30T22:52:18.160Z,66.57
2022-08-30T22:54:51.856Z,66.11
2022-08-30T22:57:20.249Z,66.30
2022-08-30T22:59:52.164Z,67.03
2022-08-30T23:02:25.204Z,67.21
2022-08-30T23:04:56.090Z,66.78
2022-08-30T23:07:29.315Z,67.31
2022-08-30T23:10:00.770Z,67.83
2022-08-30T23:12:28.079Z,67.49
2022-08-30T23:14:55.356Z,69.46
2022-08-30T23:17:27.844Z,69.96
2022-08-30T23:20:06.309Z,70.10
2022-08-30T23:22:33.504Z,68.97
2022-08-30T23:25:19.509Z,68.74
2022-08-30T23:28:08.462Z,69.22
2022-08-30T23:30:54.436Z,69.77
2022-08-30T23:34:05.091Z,70.43
2022-08-30T23:37:09.686Z,69.69
2022-08-30T23:39:56.275Z,70.31
2022-08-30T23:42:45.519Z,70.75
2022-08-30T23:45:32.633Z,70.02
2022-08-30T23:48:24.252Z,69.85
2022-08-30T23:51:12.767Z,70.16
2022-08-30T23:54:20.299Z,70.72
2022-08-30T23:57:10.137Z,70.44
